JIA2985 KRDU-KDCA
Flight info
| Callsign | JIA2985 |
|---|---|
| Flight time | N/A |
| Altitude | 27000 |
| Route | BEXGO5 BOUSY WAVES CAPSS4 |
| Aircraft | CRJ7/M-SDFGIRWY/S |
Departure
| Time | 2026-05-03 20:17 |
|---|---|
| Airport | Raleigh-Durham International Airport (KRDU) |
Arrival
| Time | N/A |
|---|---|
| Airport | Ronald Reagan Washington National Airport (KDCA) |
| Time | Latitude | Longitude | Altitude | Speed | Heading |
|---|---|---|---|---|---|
| 2026-05-03 20:15 | 35.87422 | -78.80141 | 419 ft | 5 kts | 317° |
| 2026-05-03 20:15 | 35.87446 | -78.80162 | 421 ft | 5 kts | 342° |
| 2026-05-03 20:15 | 35.87514 | -78.80112 | 418 ft | 14 kts | 44° |
| 2026-05-03 20:15 | 35.87521 | -78.80103 | 422 ft | 0 kts | 45° |
| 2026-05-03 20:16 | 35.87522 | -78.80103 | 422 ft | 0 kts | 45° |
| 2026-05-03 20:16 | 35.87626 | -78.79973 | 423 ft | 56 kts | 45° |
| 2026-05-03 20:16 | 35.88068 | -78.79426 | 421 ft | 121 kts | 45° |
| 2026-05-03 20:17 | 35.88780 | -78.78545 | 517 ft | 161 kts | 45° |
| 2026-05-03 20:17 | 35.89523 | -78.77610 | 1325 ft | 146 kts | 43° |
| 2026-05-03 20:17 | 35.90318 | -78.76661 | 1980 ft | 159 kts | 40° |
| 2026-05-03 20:17 | 35.91143 | -78.75720 | 2698 ft | 174 kts | 37° |
| 2026-05-03 20:18 | 35.92106 | -78.74683 | 3303 ft | 192 kts | 36° |
| 2026-05-03 20:18 | 35.93200 | -78.73678 | 4226 ft | 200 kts | 34° |
| 2026-05-03 20:18 | 35.94381 | -78.72609 | 5004 ft | 219 kts | 33° |
| 2026-05-03 20:18 | 35.95672 | -78.71439 | 5913 ft | 241 kts | 32° |
| 2026-05-03 20:19 | 35.97056 | -78.70147 | 6865 ft | 258 kts | 32° |
| 2026-05-03 20:19 | 35.98523 | -78.68771 | 7827 ft | 273 kts | 32° |
| 2026-05-03 20:19 | 36.00065 | -78.67325 | 8925 ft | 283 kts | 32° |
| 2026-05-03 20:19 | 36.01652 | -78.65816 | 10062 ft | 291 kts | 32° |
| 2026-05-03 20:20 | 36.03292 | -78.64260 | 10930 ft | 307 kts | 32° |
| 2026-05-03 20:20 | 36.05046 | -78.62604 | 11299 ft | 328 kts | 32° |
| 2026-05-03 20:20 | 36.06911 | -78.60846 | 11759 ft | 345 kts | 32° |
| 2026-05-03 20:20 | 36.08850 | -78.59006 | 12398 ft | 355 kts | 32° |
| 2026-05-03 20:21 | 36.10781 | -78.57152 | 13171 ft | 360 kts | 32° |
| 2026-05-03 20:21 | 36.12785 | -78.55232 | 13960 ft | 365 kts | 32° |
| 2026-05-03 20:21 | 36.14813 | -78.53298 | 14664 ft | 369 kts | 32° |
| 2026-05-03 20:21 | 36.16861 | -78.51352 | 15361 ft | 373 kts | 31° |
| 2026-05-03 20:22 | 36.18914 | -78.49399 | 16049 ft | 376 kts | 31° |
| 2026-05-03 20:22 | 36.21008 | -78.47403 | 16749 ft | 379 kts | 31° |
| 2026-05-03 20:22 | 36.23097 | -78.45409 | 17437 ft | 382 kts | 31° |
| 2026-05-03 20:22 | 36.25220 | -78.43379 | 18092 ft | 386 kts | 31° |
| 2026-05-03 20:23 | 36.27360 | -78.41338 | 18674 ft | 390 kts | 31° |
| 2026-05-03 20:23 | 36.29524 | -78.39283 | 19170 ft | 394 kts | 30° |
| 2026-05-03 20:23 | 36.31720 | -78.37239 | 19670 ft | 399 kts | 30° |
| 2026-05-03 20:23 | 36.33962 | -78.35139 | 20160 ft | 404 kts | 30° |
| 2026-05-03 20:24 | 36.36216 | -78.33026 | 20646 ft | 408 kts | 30° |
| 2026-05-03 20:24 | 36.38496 | -78.30892 | 21123 ft | 413 kts | 29° |
| 2026-05-03 20:24 | 36.40799 | -78.28740 | 21580 ft | 417 kts | 29° |
| 2026-05-03 20:24 | 36.43134 | -78.26562 | 22035 ft | 421 kts | 29° |
| 2026-05-03 20:25 | 36.45484 | -78.24375 | 22476 ft | 425 kts | 29° |
| 2026-05-03 20:25 | 36.47864 | -78.22162 | 22930 ft | 429 kts | 28° |
| 2026-05-03 20:25 | 36.50220 | -78.19976 | 23360 ft | 433 kts | 28° |
| 2026-05-03 20:25 | 36.52692 | -78.17671 | 23782 ft | 437 kts | 29° |
| 2026-05-03 20:26 | 36.55121 | -78.15384 | 24153 ft | 440 kts | 29° |
| 2026-05-03 20:26 | 36.57566 | -78.13082 | 24509 ft | 443 kts | 29° |
| 2026-05-03 20:26 | 36.60026 | -78.10763 | 24864 ft | 445 kts | 28° |
| 2026-05-03 20:26 | 36.62506 | -78.08428 | 25202 ft | 448 kts | 28° |
| 2026-05-03 20:27 | 36.64872 | -78.06162 | 26592 ft | 387 kts | 28° |
| 2026-05-03 20:27 | 36.66403 | -78.04403 | 31122 ft | 226 kts | 28° |
| 2026-05-03 20:27 | 36.67374 | -78.02940 | 32134 ft | 223 kts | 31° |
| 2026-05-03 20:27 | 36.68366 | -78.01276 | 29187 ft | 301 kts | 49° |
| 2026-05-03 20:28 | 36.69675 | -77.98375 | 27476 ft | 406 kts | 48° |
| 2026-05-03 20:28 | 36.71298 | -77.95420 | 27444 ft | 419 kts | 47° |
| 2026-05-03 20:28 | 36.72993 | -77.92397 | 27413 ft | 432 kts | 47° |
| 2026-05-03 20:28 | 36.74759 | -77.89287 | 27255 ft | 446 kts | 47° |
| 2026-05-03 20:29 | 36.76592 | -77.86095 | 27194 ft | 459 kts | 47° |
| 2026-05-03 20:29 | 36.78479 | -77.82835 | 27168 ft | 469 kts | 47° |
| 2026-05-03 20:29 | 36.80405 | -77.79536 | 27150 ft | 479 kts | 46° |
| 2026-05-03 20:29 | 36.82413 | -77.76115 | 27139 ft | 488 kts | 46° |
| 2026-05-03 20:30 | 36.84443 | -77.72679 | 27132 ft | 496 kts | 46° |